Time;durP1;ratioP1;P1;durP2;ratioP2;P2;SDS_P1;SDS_P2;PMS_P1;PMS_P2;Temp;Humidity;BMP_temperature;BMP_pressure;BME280_temperature;BME280_humidity;BME280_pressure;Samples;Min_cycle;Max_cycle;Signal;HPM_P1;HPM_P2
2022/01/10 00:02:07;;;;;;;40.70;23.30;;;;;;;8.43;100.00;98164.19;5073540;28;20733;-73
2022/01/10 00:04:35;;;;;;;39.73;23.67;;;;;;;8.47;100.00;98159.25;5073756;28;20222;-73
2022/01/10 00:07:02;;;;;;;41.37;24.23;;;;;;;8.48;100.00;98163.53;5073761;28;20246;-75
2022/01/10 00:09:29;;;;;;;42.97;22.97;;;;;;;8.54;100.00;98165.31;5073299;28;20621;-72
2022/01/10 00:11:56;;;;;;;39.47;22.13;;;;;;;8.49;100.00;98165.16;5073943;28;20192;-72
2022/01/10 00:14:22;;;;;;;40.83;22.10;;;;;;;8.47;100.00;98167.19;5073500;28;20572;-72
2022/01/10 00:16:49;;;;;;;42.27;21.80;;;;;;;8.49;100.00;98167.81;5073565;28;20191;-72
2022/01/10 00:19:16;;;;;;;41.03;22.33;;;;;;;8.53;100.00;98167.16;5073776;28;20246;-72
2022/01/10 00:21:44;;;;;;;43.03;21.53;;;;;;;8.61;100.00;98168.72;5073706;28;20195;-71
2022/01/10 00:24:11;;;;;;;38.57;21.97;;;;;;;8.65;100.00;98175.19;5073028;28;20764;-74
2022/01/10 00:26:37;;;;;;;42.27;23.23;;;;;;;8.65;100.00;98165.44;5073383;28;20242;-71
2022/01/10 00:29:04;;;;;;;45.27;24.37;;;;;;;8.68;100.00;98177.41;5073336;28;20223;-70
2022/01/10 00:31:31;;;;;;;35.97;22.43;;;;;;;8.68;100.00;98177.41;5073218;28;20538;-71
2022/01/10 00:33:57;;;;;;;39.37;22.20;;;;;;;8.60;100.00;98172.38;5073815;28;20301;-72
2022/01/10 00:36:25;;;;;;;40.20;22.57;;;;;;;8.58;100.00;98169.16;5073195;28;20245;-74
2022/01/10 00:38:53;;;;;;;34.53;21.97;;;;;;;8.62;100.00;98165.06;5073974;28;20292;-71
2022/01/10 00:41:20;;;;;;;39.37;21.23;;;;;;;8.62;100.00;98171.16;5073279;28;20601;-73
2022/01/10 00:43:48;;;;;;;36.73;22.10;;;;;;;8.63;100.00;98161.38;5072625;28;20220;-74
2022/01/10 00:46:15;;;;;;;37.27;22.57;;;;;;;8.66;100.00;98153.81;5073025;28;20188;-73
2022/01/10 00:48:42;;;;;;;40.63;21.53;;;;;;;8.63;100.00;98150.78;5072973;28;20195;-73
2022/01/10 00:51:08;;;;;;;45.53;23.17;;;;;;;8.62;99.81;98154.47;5072615;28;20200;-75
2022/01/10 00:53:35;;;;;;;40.53;21.03;;;;;;;8.62;100.00;98152.63;5072858;28;20196;-75
2022/01/10 00:56:08;;;;;;;39.97;22.33;;;;;;;8.61;100.00;98153.66;5072805;28;20200;-72
2022/01/10 00:58:35;;;;;;;38.40;21.40;;;;;;;8.63;100.00;98145.50;5072502;28;20188;-72
2022/01/10 01:01:01;;;;;;;37.23;20.77;;;;;;;8.67;100.00;98146.69;5073034;28;20188;-72
2022/01/10 01:03:28;;;;;;;35.97;20.13;;;;;;;8.66;100.00;98145.06;5072887;28;20292;-72
2022/01/10 01:05:55;;;;;;;36.23;20.33;;;;;;;8.67;100.00;98133.47;5072683;28;20249;-73
2022/01/10 01:08:22;;;;;;;34.73;21.00;;;;;;;8.69;100.00;98134.03;5072640;28;20198;-72
2022/01/10 01:13:40;;;;;;;32.60;19.80;;;;;;;8.69;100.00;98126.09;5072339;28;20652;-71
2022/01/10 01:16:17;;;;;;;32.03;20.07;;;;;;;8.68;100.00;98117.38;5072887;28;20233;-74
2022/01/10 01:24:14;;;;;;;30.73;19.07;;;;;;;8.75;100.00;98109.34;5073028;28;20673;-74
2022/01/10 01:26:42;;;;;;;32.40;18.57;;;;;;;8.79;100.00;98110.53;5072102;28;20204;-74
2022/01/10 01:29:13;;;;;;;28.63;18.50;;;;;;;8.83;100.00;98103.78;5072323;28;20620;-72
2022/01/10 01:31:40;;;;;;;27.83;18.30;;;;;;;8.83;100.00;98109.88;5073428;28;20261;-73
2022/01/10 01:34:07;;;;;;;32.83;18.50;;;;;;;8.84;99.72;98095.63;5072880;28;20235;-73
2022/01/10 01:36:34;;;;;;;30.43;18.10;;;;;;;8.85;99.74;98107.00;5072835;28;20188;-72
2022/01/10 01:39:10;;;;;;;29.83;18.33;;;;;;;8.84;99.12;98105.41;5072769;28;20257;-72
2022/01/10 01:41:41;;;;;;;31.40;18.93;;;;;;;8.86;99.72;98098.06;5073130;28;20272;-74
2022/01/10 01:44:08;;;;;;;27.53;18.20;;;;;;;8.83;99.08;98101.13;5072392;28;20212;-73
2022/01/10 01:46:37;;;;;;;32.00;18.87;;;;;;;8.84;99.31;98097.44;5072219;28;20192;-72
2022/01/10 01:49:05;;;;;;;29.30;18.13;;;;;;;8.85;99.56;98096.41;5071909;28;20196;-71
2022/01/10 01:51:32;;;;;;;27.30;17.57;;;;;;;8.74;99.00;98089.22;5072172;28;20188;-71
2022/01/10 01:53:59;;;;;;;31.37;19.07;;;;;;;8.75;99.28;98085.53;5072160;28;20200;-71
2022/01/10 01:56:25;;;;;;;31.70;20.00;;;;;;;8.78;100.00;98085.09;5071760;28;20195;-71
2022/01/10 01:58:54;;;;;;;30.57;19.67;;;;;;;8.80;99.94;98088.34;5072381;28;20249;-71
2022/01/10 02:01:21;;;;;;;35.43;19.70;;;;;;;8.79;100.00;98076.91;5071747;28;20684;-71
2022/01/10 02:03:50;;;;;;;31.37;18.57;;;;;;;8.84;99.81;98089.50;5071987;28;20219;-71
2022/01/10 02:06:17;;;;;;;28.70;18.57;;;;;;;8.85;99.88;98089.28;5072018;28;20193;-71
2022/01/10 02:08:44;;;;;;;33.70;19.07;;;;;;;8.87;99.39;98078.50;5071693;28;20733;-71
2022/01/10 02:11:15;;;;;;;31.70;18.43;;;;;;;8.91;99.10;98090.25;5072248;28;20192;-71
2022/01/10 02:13:42;;;;;;;30.03;17.57;;;;;;;8.92;99.11;98086.59;5072045;28;20245;-71
2022/01/10 02:16:15;;;;;;;29.00;17.40;;;;;;;8.84;98.53;98081.56;5072716;28;20618;-71
2022/01/10 02:18:43;;;;;;;32.93;17.60;;;;;;;8.86;99.31;98087.47;5072716;28;20191;-71
2022/01/10 02:21:11;;;;;;;26.87;15.97;;;;;;;8.76;97.92;98082.69;5071560;28;20222;-70
2022/01/10 02:23:39;;;;;;;25.97;17.00;;;;;;;8.69;98.78;98089.03;5071800;28;20192;-71
2022/01/10 02:26:06;;;;;;;25.77;16.03;;;;;;;8.64;99.05;98086.25;5071832;28;20188;-73
2022/01/10 02:28:33;;;;;;;31.17;18.00;;;;;;;8.54;99.95;98085.94;5072612;28;20245;-72
2022/01/10 02:31:00;;;;;;;23.80;16.57;;;;;;;8.49;100.00;98080.50;5072325;28;20196;-73
2022/01/10 02:33:28;;;;;;;30.80;18.33;;;;;;;8.49;100.00;98088.44;5075019;28;20273;-73
2022/01/10 02:36:03;;;;;;;27.40;17.23;;;;;;;8.46;100.00;98073.00;5075178;28;20192;-75
2022/01/10 02:38:32;;;;;;;35.37;19.13;;;;;;;8.50;100.00;98079.47;5075751;28;20187;-75
2022/01/10 02:40:59;;;;;;;28.20;17.30;;;;;;;8.53;100.00;98081.69;5075112;28;20188;-76
2022/01/10 02:43:26;;;;;;;27.87;17.97;;;;;;;8.53;100.00;98077.19;5075721;28;20203;-75
2022/01/10 02:45:55;;;;;;;30.13;19.37;;;;;;;8.53;100.00;98071.88;5075387;28;20625;-75
2022/01/10 02:48:22;;;;;;;29.57;18.50;;;;;;;8.61;100.00;98076.09;5074828;28;20192;-76
2022/01/10 02:50:49;;;;;;;31.67;18.97;;;;;;;8.66;100.00;98068.31;5075245;28;20187;-76
2022/01/10 02:53:16;;;;;;;31.90;19.60;;;;;;;8.69;100.00;98075.81;5076000;28;20196;-76
2022/01/10 02:55:44;;;;;;;32.70;19.00;;;;;;;8.71;100.00;98076.41;5074834;28;20196;-74
2022/01/10 02:58:10;;;;;;;30.40;18.20;;;;;;;8.72;100.00;98083.31;5074795;28;20192;-74
2022/01/10 03:00:37;;;;;;;26.07;17.93;;;;;;;8.75;100.00;98082.88;5074730;28;20196;-75
2022/01/10 03:03:06;;;;;;;25.10;17.70;;;;;;;8.74;100.00;98079.41;5075322;28;20191;-75
2022/01/10 03:05:34;;;;;;;25.27;17.13;;;;;;;8.74;100.00;98070.69;5074659;28;20306;-74
2022/01/10 03:08:02;;;;;;;25.07;17.37;;;;;;;8.78;100.00;98074.53;5074741;28;20234;-75
2022/01/10 03:10:30;;;;;;;27.73;18.37;;;;;;;8.81;100.00;98074.06;5075173;28;20282;-75
2022/01/10 03:12:59;;;;;;;28.93;18.83;;;;;;;8.81;100.00;98069.59;5074843;28;20253;-74
2022/01/10 03:15:27;;;;;;;30.77;20.03;;;;;;;8.85;99.86;98080.53;5074763;28;20257;-74
2022/01/10 03:17:53;;;;;;;28.47;17.87;;;;;;;8.86;99.76;98072.38;5075548;28;20249;-74
2022/01/10 03:20:23;;;;;;;29.57;18.37;;;;;;;8.86;100.00;98076.88;5074697;28;20192;-74
2022/01/10 03:22:49;;;;;;;28.90;18.80;;;;;;;8.88;100.00;98080.09;5074363;28;20687;-74
2022/01/10 03:25:16;;;;;;;28.27;18.77;;;;;;;8.87;99.97;98083.78;5074576;28;20277;-73
2022/01/10 03:27:43;;;;;;;27.90;18.83;;;;;;;8.88;100.00;98085.41;5074297;28;20196;-76
2022/01/10 03:30:12;;;;;;;28.60;18.93;;;;;;;8.91;100.00;98087.63;5074530;28;20258;-76
2022/01/10 03:32:39;;;;;;;28.83;18.07;;;;;;;8.88;99.64;98080.09;5074253;28;20413;-75
2022/01/10 03:35:06;;;;;;;28.63;18.20;;;;;;;8.84;100.00;98089.50;5074111;28;20249;-76
2022/01/10 03:37:33;;;;;;;28.17;17.83;;;;;;;8.84;100.00;98094.81;5074063;28;20618;-76
2022/01/10 03:40:00;;;;;;;28.50;18.53;;;;;;;8.86;100.00;98098.06;5074340;28;20253;-75
2022/01/10 03:42:26;;;;;;;29.67;19.43;;;;;;;8.87;100.00;98094.38;5075120;28;20253;-75
2022/01/10 03:44:53;;;;;;;27.20;17.87;;;;;;;8.88;100.00;98104.75;5073447;28;20665;-75
2022/01/10 03:47:22;;;;;;;29.23;18.73;;;;;;;8.92;100.00;98113.06;5074120;28;20250;-75
2022/01/10 03:49:49;;;;;;;29.37;18.40;;;;;;;8.92;100.00;98119.19;5074162;28;20218;-75
2022/01/10 03:52:16;;;;;;;28.73;18.70;;;;;;;8.88;100.00;98111.88;5074125;28;20274;-74
2022/01/10 03:54:43;;;;;;;25.00;17.83;;;;;;;8.78;100.00;98119.53;5074322;28;20572;-74
2022/01/10 03:57:10;;;;;;;25.50;18.20;;;;;;;8.72;100.00;98121.19;5074023;28;20249;-75
2022/01/10 03:59:36;;;;;;;31.07;18.80;;;;;;;8.73;100.00;98124.63;5073982;28;20275;-74
2022/01/10 04:02:04;;;;;;;30.77;19.00;;;;;;;8.73;100.00;98114.03;5073571;28;20199;-74
2022/01/10 04:04:33;;;;;;;28.83;17.60;;;;;;;8.72;100.00;98115.06;5073449;28;20664;-75
2022/01/10 04:07:00;;;;;;;26.83;17.73;;;;;;;8.66;99.74;98115.97;5074038;28;20199;-75
2022/01/10 04:09:27;;;;;;;27.60;17.83;;;;;;;8.59;100.00;98118.66;5073448;28;20199;-76
2022/01/10 04:11:53;;;;;;;32.20;18.23;;;;;;;8.54;100.00;98125.63;5073722;28;20195;-75
2022/01/10 04:14:20;;;;;;;31.50;18.47;;;;;;;8.46;100.00;98128.56;5074479;28;20265;-76
2022/01/10 04:16:47;;;;;;;29.43;18.37;;;;;;;8.38;100.00;98134.09;5073621;28;20188;-75
2022/01/10 04:19:13;;;;;;;34.57;19.80;;;;;;;8.30;100.00;98129.06;5073224;28;20192;-74
2022/01/10 04:21:42;;;;;;;39.60;22.27;;;;;;;8.32;100.00;98137.59;5073124;28;20626;-75
2022/01/10 04:24:08;;;;;;;33.33;21.40;;;;;;;8.32;100.00;98134.94;5073272;28;20206;-75
2022/01/10 04:26:35;;;;;;;33.07;19.33;;;;;;;8.30;100.00;98134.38;5073351;28;20237;-75
2022/01/10 04:29:02;;;;;;;32.00;18.97;;;;;;;8.29;100.00;98130.09;5073025;28;20199;-75
2022/01/10 04:31:29;;;;;;;31.30;19.83;;;;;;;8.31;100.00;98128.03;5072787;28;20733;-73
2022/01/10 04:33:55;;;;;;;30.57;20.20;;;;;;;8.34;100.00;98119.69;5073271;28;20285;-73
2022/01/10 04:36:22;;;;;;;29.30;18.80;;;;;;;8.36;100.00;98130.84;5073360;28;20257;-73
2022/01/10 04:38:50;;;;;;;27.97;18.80;;;;;;;8.34;100.00;98125.75;5073977;28;20196;-74
2022/01/10 04:41:17;;;;;;;30.43;19.73;;;;;;;8.36;100.00;98131.66;5072821;28;20249;-76
2022/01/10 04:43:43;;;;;;;33.63;20.40;;;;;;;8.42;100.00;98133.44;5072739;28;20192;-74
2022/01/10 04:46:10;;;;;;;32.00;19.27;;;;;;;8.46;100.00;98137.28;5072590;28;20698;-74
2022/01/10 04:48:37;;;;;;;30.87;18.10;;;;;;;8.51;100.00;98139.28;5072994;28;20345;-74
2022/01/10 04:51:14;;;;;;;29.20;19.10;;;;;;;8.55;100.00;98132.53;5073161;28;20189;-73
2022/01/10 04:53:44;;;;;;;29.13;18.93;;;;;;;8.56;100.00;98134.16;5073754;28;20184;-73
2022/01/10 04:56:12;;;;;;;29.33;18.83;;;;;;;8.65;100.00;98144.25;5072346;28;20261;-73
2022/01/10 04:58:39;;;;;;;36.00;21.00;;;;;;;8.71;100.00;98137.28;5072835;28;20249;-73
2022/01/10 05:01:07;;;;;;;31.17;20.40;;;;;;;8.76;100.00;98145.38;5072804;28;20234;-74
2022/01/10 05:03:34;;;;;;;30.70;19.23;;;;;;;8.80;100.00;98136.81;5072749;28;20200;-73
2022/01/10 05:06:01;;;;;;;29.60;19.37;;;;;;;8.83;100.00;98133.69;5072541;28;20268;-74
2022/01/10 05:08:28;;;;;;;29.27;19.63;;;;;;;8.90;100.00;98146.91;5072356;28;20192;-73
2022/01/10 05:10:55;;;;;;;31.20;18.40;;;;;;;8.89;100.00;98147.91;5073139;28;20192;-77
2022/01/10 05:13:23;;;;;;;30.37;17.90;;;;;;;8.91;100.00;98143.22;5072793;28;20192;-73
2022/01/10 05:15:51;;;;;;;30.70;18.93;;;;;;;8.89;100.00;98147.91;5072454;28;20287;-73
2022/01/10 05:18:18;;;;;;;29.10;20.17;;;;;;;8.86;100.00;98146.50;5072562;28;20191;-73
2022/01/10 05:20:46;;;;;;;31.33;20.40;;;;;;;8.92;100.00;98147.47;5071510;28;20246;-72
2022/01/10 05:23:13;;;;;;;35.87;21.40;;;;;;;8.92;100.00;98144.84;5072293;28;20253;-72
2022/01/10 05:25:40;;;;;;;32.97;22.23;;;;;;;8.99;100.00;98145.59;5071064;28;20293;-70
2022/01/10 05:28:09;;;;;;;36.67;23.27;;;;;;;9.04;100.00;98151.03;5071713;28;20577;-71
2022/01/10 05:30:39;;;;;;;35.30;22.90;;;;;;;9.10;100.00;98153.59;5072912;28;20192;-73
2022/01/10 05:33:08;;;;;;;33.13;21.90;;;;;;;9.14;100.00;98160.09;5072623;28;20227;-73
2022/01/10 05:35:35;;;;;;;29.97;20.53;;;;;;;9.12;100.00;98153.41;5071953;28;20573;-72
2022/01/10 05:38:02;;;;;;;34.60;21.17;;;;;;;9.17;100.00;98169.44;5071087;28;20195;-71
2022/01/10 05:40:29;;;;;;;33.33;22.30;;;;;;;9.11;100.00;98167.69;5069691;28;20659;-73
2022/01/10 05:42:55;;;;;;;37.97;23.37;;;;;;;9.09;100.00;98167.06;5069996;28;20245;-71
2022/01/10 05:45:22;;;;;;;34.47;22.93;;;;;;;9.00;100.00;98163.91;5069499;28;20312;-73
2022/01/10 05:47:51;;;;;;;36.53;22.27;;;;;;;9.10;100.00;98179.28;5070183;28;20195;-73
2022/01/10 05:50:30;;;;;;;31.43;21.47;;;;;;;9.14;100.00;98180.47;5069970;28;20567;-72
2022/01/10 05:52:57;;;;;;;29.40;19.73;;;;;;;9.18;100.00;98192.25;5070788;28;20184;-72
2022/01/10 05:55:24;;;;;;;27.57;19.17;;;;;;;9.22;100.00;98193.41;5072075;28;20257;-72
2022/01/10 05:57:51;;;;;;;31.37;19.60;;;;;;;9.24;100.00;98188.72;5071732;28;20249;-71
2022/01/10 06:00:18;;;;;;;30.83;20.53;;;;;;;9.25;100.00;98198.28;5071773;28;20191;-70
2022/01/10 06:02:44;;;;;;;27.47;18.80;;;;;;;9.25;100.00;98193.81;5071289;28;20723;-72
2022/01/10 06:05:12;;;;;;;24.43;17.13;;;;;;;9.21;100.00;98189.97;5071914;28;20364;-73
2022/01/10 06:07:39;;;;;;;24.27;16.47;;;;;;;9.24;100.00;98194.81;5074925;28;20196;-73
2022/01/10 06:10:06;;;;;;;24.90;18.03;;;;;;;9.26;100.00;98199.91;5075675;28;20655;-70
2022/01/10 06:12:33;;;;;;;26.20;16.53;;;;;;;9.24;100.00;98201.97;5075305;28;20544;-70
2022/01/10 06:15:00;;;;;;;24.23;16.87;;;;;;;9.27;100.00;98201.53;5075165;28;20192;-69
2022/01/10 06:17:27;;;;;;;26.50;18.50;;;;;;;9.81;100.00;98193.59;5070930;28;20188;-72
2022/01/10 06:19:54;;;;;;;27.00;18.03;;;;;;;9.95;100.00;98203.00;5074521;28;20671;-72
2022/01/10 06:22:22;;;;;;;29.17;20.40;;;;;;;9.81;100.00;98202.34;5074757;28;20234;-71
2022/01/10 06:24:49;;;;;;;23.43;18.27;;;;;;;9.71;100.00;98209.19;5075406;28;20267;-70
2022/01/10 06:27:15;;;;;;;24.27;17.80;;;;;;;9.68;99.53;98204.38;5075854;28;20196;-71
2022/01/10 06:29:42;;;;;;;24.80;17.87;;;;;;;9.59;99.44;98205.66;5075337;28;20196;-71
2022/01/10 06:32:09;;;;;;;24.50;18.10;;;;;;;9.56;99.10;98211.44;5071582;28;20201;-71
2022/01/10 06:34:35;;;;;;;25.40;18.30;;;;;;;9.58;99.25;98209.34;5075215;28;20196;-70
2022/01/10 06:37:02;;;;;;;25.43;19.67;;;;;;;9.59;99.37;98222.38;5074928;28;20663;-70
2022/01/10 06:39:31;;;;;;;26.23;19.43;;;;;;;9.53;99.54;98212.69;5074878;28;20192;-70
2022/01/10 06:41:58;;;;;;;31.83;21.63;;;;;;;9.58;99.41;98219.97;5074687;28;20260;-70
2022/01/10 06:44:25;;;;;;;29.63;21.00;;;;;;;9.56;99.75;98228.13;5074847;28;20608;-69
2022/01/10 06:46:51;;;;;;;36.33;23.60;;;;;;;9.59;100.00;98221.56;5074069;28;20220;-71
2022/01/10 06:49:18;;;;;;;38.60;25.27;;;;;;;9.52;99.96;98226.16;5073348;28;20204;-71
2022/01/10 06:51:45;;;;;;;33.10;24.27;;;;;;;9.48;99.48;98227.63;5072125;28;20242;-72
2022/01/10 06:54:11;;;;;;;38.57;24.37;;;;;;;9.50;100.00;98233.50;5074545;28;20200;-70
2022/01/10 06:56:39;;;;;;;35.30;23.67;;;;;;;9.51;100.00;98232.47;5074788;28;20211;-72
2022/01/10 06:59:06;;;;;;;33.27;23.17;;;;;;;9.50;100.00;98228.19;5075109;28;20195;-70
2022/01/10 07:01:33;;;;;;;41.63;27.10;;;;;;;9.52;100.00;98226.16;5075041;28;20188;-72
2022/01/10 07:04:00;;;;;;;39.30;26.37;;;;;;;9.55;100.00;98233.66;5073735;28;20265;-69
2022/01/10 07:06:26;;;;;;;46.03;28.77;;;;;;;9.50;100.00;98222.91;5072467;28;20646;-69
2022/01/10 07:08:53;;;;;;;39.63;25.53;;;;;;;9.51;100.00;98227.16;5072524;28;20234;-69
2022/01/10 07:11:20;;;;;;;36.43;24.40;;;;;;;9.49;100.00;98226.59;5072658;28;20203;-69
2022/01/10 07:13:48;;;;;;;39.30;23.93;;;;;;;9.53;100.00;98233.06;5073012;28;20253;-69
2022/01/10 07:16:15;;;;;;;41.13;23.60;;;;;;;9.53;100.00;98233.06;5072436;28;20258;-70
2022/01/10 07:18:41;;;;;;;38.27;22.53;;;;;;;9.44;100.00;98240.47;5071997;28;20626;-70
2022/01/10 07:21:08;;;;;;;40.30;24.73;;;;;;;9.48;100.00;98230.28;5074669;28;20265;-70
2022/01/10 07:23:35;;;;;;;46.90;28.73;;;;;;;9.52;100.00;98234.91;5074170;28;20732;-70
2022/01/10 07:26:02;;;;;;;61.10;35.70;;;;;;;9.42;100.00;98237.25;5074336;28;20232;-71
2022/01/10 07:28:28;;;;;;;56.13;35.03;;;;;;;9.50;100.00;98236.16;5069854;28;21519;-71
2022/01/10 07:30:57;;;;;;;49.97;30.17;;;;;;;9.53;100.00;98236.53;5057958;28;20296;-69
2022/01/10 07:33:23;;;;;;;54.67;31.83;;;;;;;9.50;100.00;98231.66;5073499;28;20756;-68
2022/01/10 07:35:50;;;;;;;50.50;32.03;;;;;;;9.53;100.00;98233.88;5073735;28;20254;-70
2022/01/10 07:38:17;;;;;;;38.90;24.80;;;;;;;9.35;100.00;98247.09;5068739;28;20660;-69
2022/01/10 07:40:44;;;;;;;44.00;27.03;;;;;;;9.39;100.00;98240.34;5064125;28;20188;-69
2022/01/10 07:43:10;;;;;;;42.70;26.50;;;;;;;9.32;100.00;98246.75;5054164;28;20196;-69
2022/01/10 07:45:38;;;;;;;45.60;28.13;;;;;;;9.32;100.00;98246.75;5069101;28;20247;-71
2022/01/10 07:48:07;;;;;;;41.03;26.20;;;;;;;9.36;100.00;98243.41;5073604;28;20578;-71
2022/01/10 07:50:33;;;;;;;51.70;31.47;;;;;;;9.42;100.00;98253.16;5073783;28;20192;-71
2022/01/10 07:53:00;;;;;;;58.07;32.30;;;;;;;9.40;100.00;98247.25;5074145;28;20196;-70
2022/01/10 07:55:27;;;;;;;45.90;30.27;;;;;;;9.43;100.00;98259.25;5073142;28;20196;-71
2022/01/10 07:57:54;;;;;;;37.43;24.33;;;;;;;9.44;100.00;98251.09;5073883;28;20238;-71
2022/01/10 08:00:20;;;;;;;64.27;31.83;;;;;;;9.48;100.00;98251.47;5073859;28;20261;-71
2022/01/10 08:02:47;;;;;;;73.17;38.37;;;;;;;9.45;100.00;98262.50;5073389;28;20227;-71
2022/01/10 08:05:15;;;;;;;77.97;41.40;;;;;;;9.48;100.00;98257.56;5073503;28;20545;-70
2022/01/10 08:07:42;;;;;;;67.30;38.20;;;;;;;9.55;100.00;98257.50;5073473;28;20268;-70
2022/01/10 08:10:10;;;;;;;61.60;35.27;;;;;;;9.60;100.00;98252.38;5073127;28;20200;-70
2022/01/10 08:12:36;;;;;;;58.30;32.03;;;;;;;9.67;100.00;98258.38;5073442;28;20241;-72
2022/01/10 08:15:04;;;;;;;64.93;34.53;;;;;;;9.57;100.00;98260.75;5073050;28;20733;-64
2022/01/10 08:17:31;;;;;;;64.93;35.40;;;;;;;9.54;100.00;98261.19;5072922;28;20204;-63
2022/01/10 08:19:57;;;;;;;69.37;37.13;;;;;;;9.58;100.00;98260.53;5073006;28;20242;-64
2022/01/10 08:22:25;;;;;;;65.97;35.30;;;;;;;9.65;100.00;98263.13;5073164;28;20679;-64
2022/01/10 08:24:53;;;;;;;60.50;34.90;;;;;;;9.63;100.00;98259.88;5067200;28;20192;-64
2022/01/10 08:27:20;;;;;;;51.93;29.73;;;;;;;9.51;100.00;98258.97;5072853;28;20232;-64
2022/01/10 08:29:47;;;;;;;41.30;25.87;;;;;;;9.38;100.00;98261.75;5071961;28;20566;-64
2022/01/10 08:32:14;;;;;;;40.93;25.97;;;;;;;9.43;100.00;98264.53;5072430;28;20602;-63
2022/01/10 08:34:41;;;;;;;42.90;26.60;;;;;;;9.29;100.00;98255.09;5072534;28;20651;-62
2022/01/10 08:37:08;;;;;;;35.77;22.47;;;;;;;9.32;100.00;98262.63;5072183;28;20199;-62
2022/01/10 08:39:37;;;;;;;34.50;22.00;;;;;;;9.25;100.00;98241.50;5073182;28;20249;-62
2022/01/10 08:42:04;;;;;;;35.53;22.43;;;;;;;9.40;100.00;98263.16;5064550;28;20196;-63
2022/01/10 08:44:30;;;;;;;42.10;24.40;;;;;;;9.36;100.00;98259.31;5071824;28;20192;-62
2022/01/10 08:46:57;;;;;;;48.37;29.23;;;;;;;9.42;100.00;98257.63;5072547;28;20840;-62
2022/01/10 08:49:24;;;;;;;41.80;25.03;;;;;;;9.24;100.00;98265.56;5072819;28;20188;-63
2022/01/10 08:51:54;;;;;;;45.27;24.37;;;;;;;9.35;100.00;98257.69;5072565;28;20261;-62
2022/01/10 08:54:21;;;;;;;38.77;23.50;;;;;;;9.45;100.00;98246.59;5072823;28;20188;-62
2022/01/10 08:56:50;;;;;;;40.03;25.63;;;;;;;9.52;100.00;98247.34;5072468;28;20203;-62
2022/01/10 08:59:16;;;;;;;47.43;25.97;;;;;;;9.61;100.00;98248.69;5072317;28;20199;-65
2022/01/10 09:01:43;;;;;;;53.50;31.07;;;;;;;9.63;100.00;98249.25;5072393;28;20637;-64
2022/01/10 09:04:15;;;;;;;46.50;27.83;;;;;;;9.72;100.00;98242.66;5072452;28;20187;-63
2022/01/10 09:06:43;;;;;;;44.70;25.20;;;;;;;9.66;100.00;98248.81;5072864;28;20211;-62
2022/01/10 09:09:10;;;;;;;39.73;23.17;;;;;;;9.72;100.00;98242.66;5071997;28;20208;-63
2022/01/10 09:11:37;;;;;;;49.27;26.67;;;;;;;9.78;100.00;98241.75;5072508;28;20192;-63
2022/01/10 09:14:05;;;;;;;47.37;28.20;;;;;;;9.88;100.00;98247.34;5072099;28;20748;-63
2022/01/10 09:16:32;;;;;;;39.43;24.40;;;;;;;9.92;100.00;98245.88;5072494;28;20200;-63
2022/01/10 09:18:59;;;;;;;42.03;24.53;;;;;;;9.89;100.00;98233.06;5072468;28;20625;-64
2022/01/10 09:21:26;;;;;;;38.87;22.73;;;;;;;9.95;100.00;98245.44;5071734;28;20663;-63
2022/01/10 09:23:53;;;;;;;41.77;23.73;;;;;;;9.98;100.00;98240.50;5072481;28;20429;-65
2022/01/10 09:26:19;;;;;;;30.43;20.50;;;;;;;10.04;100.00;98242.25;5054584;28;20266;-64
2022/01/10 09:28:46;;;;;;;32.47;21.60;;;;;;;10.05;100.00;98243.91;5051908;28;20197;-64
2022/01/10 09:31:14;;;;;;;30.63;20.20;;;;;;;9.88;100.00;98242.88;5052307;28;20597;-66
2022/01/10 09:33:41;;;;;;;32.37;20.13;;;;;;;9.87;100.00;98240.44;5057705;28;20772;-68
2022/01/10 09:36:08;;;;;;;33.73;22.77;;;;;;;9.95;100.00;98237.47;5072185;28;20196;-64
2022/01/10 09:38:35;;;;;;;33.47;20.50;;;;;;;9.84;100.00;98243.50;5073022;28;20187;-64
2022/01/10 09:41:03;;;;;;;38.77;20.97;;;;;;;9.90;100.00;98237.34;5071823;28;20257;-63
2022/01/10 09:43:29;;;;;;;40.43;24.13;;;;;;;9.92;100.00;98243.22;5072206;28;20192;-62
2022/01/10 09:45:56;;;;;;;42.90;23.93;;;;;;;9.74;100.00;98245.88;5072129;28;20191;-61
2022/01/10 09:48:25;;;;;;;30.73;20.50;;;;;;;9.80;100.00;98234.41;5071730;28;20594;-62
2022/01/10 09:50:51;;;;;;;29.77;19.20;;;;;;;9.85;100.00;98234.56;5071788;28;20192;-62
2022/01/10 09:53:21;;;;;;;27.40;17.60;;;;;;;9.84;100.00;98232.91;5071773;28;20188;-62
2022/01/10 09:55:48;;;;;;;29.83;18.83;;;;;;;9.86;100.00;98228.22;5072377;28;20188;-63
2022/01/10 09:58:15;;;;;;;33.03;20.77;;;;;;;9.74;100.00;98228.16;5071714;28;20249;-63
2022/01/10 10:00:42;;;;;;;32.67;21.07;;;;;;;9.77;100.00;98229.53;5072006;28;20640;-62
2022/01/10 10:03:09;;;;;;;31.67;20.77;;;;;;;9.82;100.00;98221.72;5072145;28;20196;-62
2022/01/10 10:05:37;;;;;;;34.03;22.47;;;;;;;9.86;100.00;98222.91;5071533;28;20200;-63
2022/01/10 10:08:04;;;;;;;34.70;21.20;;;;;;;9.83;100.00;98215.38;5072400;28;20228;-63
2022/01/10 10:10:32;;;;;;;50.13;31.90;;;;;;;9.74;100.00;98219.38;5071881;28;20265;-63
2022/01/10 10:12:59;;;;;;;53.00;32.30;;;;;;;9.65;100.00;98223.34;5071584;28;20652;-62
2022/01/10 10:15:30;;;;;;;46.13;30.17;;;;;;;9.68;100.00;98213.09;5071980;28;20248;-62
2022/01/10 10:17:57;;;;;;;52.50;33.53;;;;;;;9.71;100.00;98219.81;5072079;28;20191;-65
2022/01/10 10:20:25;;;;;;;39.87;25.87;;;;;;;9.76;100.00;98214.69;5071481;28;20564;-68
2022/01/10 10:22:54;;;;;;;40.60;26.20;;;;;;;9.79;100.00;98220.34;5071425;28;20192;-69
2022/01/10 10:25:21;;;;;;;45.70;24.10;;;;;;;9.78;100.00;98220.53;5070762;28;20206;-70
2022/01/10 10:27:49;;;;;;;41.73;23.30;;;;;;;9.81;100.00;98223.56;5072028;28;20219;-68
2022/01/10 10:30:21;;;;;;;32.73;20.23;;;;;;;9.81;100.00;98225.41;5071875;28;20582;-68
2022/01/10 10:32:50;;;;;;;35.93;22.10;;;;;;;9.82;100.00;98221.72;5071849;28;20224;-69
2022/01/10 10:35:17;;;;;;;28.30;19.80;;;;;;;9.83;100.00;98223.34;5083146;28;20200;-69
2022/01/10 10:37:45;;;;;;;39.50;24.67;;;;;;;9.80;100.00;98211.34;5071698;28;20253;-68
2022/01/10 10:40:16;;;;;;;40.23;25.67;;;;;;;9.61;100.00;98219.53;5071785;28;20192;-68
2022/01/10 10:42:45;;;;;;;30.07;20.00;;;;;;;9.70;100.00;98218.19;5071367;28;20194;-67
2022/01/10 10:45:14;;;;;;;31.93;18.23;;;;;;;9.68;100.00;98212.31;5071241;28;20188;-68
2022/01/10 10:47:44;;;;;;;30.63;18.27;;;;;;;9.69;100.00;98211.28;5071126;28;20220;-68
2022/01/10 10:50:11;;;;;;;26.43;17.23;;;;;;;9.77;100.00;98209.13;5071311;28;20574;-68
2022/01/10 10:52:41;;;;;;;27.17;17.90;;;;;;;9.85;100.00;98210.69;5071164;28;20622;-67
2022/01/10 10:55:10;;;;;;;19.43;14.63;;;;;;;9.77;100.00;98214.44;5074634;28;20194;-69
2022/01/10 10:57:39;;;;;;;16.63;14.33;;;;;;;9.78;100.00;98217.91;5074751;28;20728;-68
2022/01/10 11:00:10;;;;;;;21.90;16.07;;;;;;;9.80;100.00;98218.50;5074865;28;20245;-69
2022/01/10 11:02:37;;;;;;;24.20;16.53;;;;;;;9.82;100.00;98216.44;5074957;28;20203;-69
2022/01/10 11:05:06;;;;;;;21.33;15.47;;;;;;;9.89;100.00;98220.59;5074667;28;20249;-68
2022/01/10 11:07:35;;;;;;;21.00;15.67;;;;;;;9.97;100.00;98222.16;5074350;28;20730;-69
2022/01/10 11:10:02;;;;;;;24.03;18.17;;;;;;;9.93;100.00;98218.34;5074544;28;20196;-70
2022/01/10 11:12:29;;;;;;;26.43;19.77;;;;;;;9.90;100.00;98218.78;5074462;28;20633;-69
2022/01/10 11:14:59;;;;;;;22.50;17.03;;;;;;;9.75;100.00;98208.56;5074349;28;20644;-69
2022/01/10 11:17:26;;;;;;;20.23;15.30;;;;;;;9.72;100.00;98210.84;5074740;28;20249;-68
2022/01/10 11:20:16;;;;;;;17.17;14.33;;;;;;;9.71;100.00;98211.84;5074620;28;20188;-69
2022/01/10 11:22:44;;;;;;;24.43;16.10;;;;;;;9.64;100.00;98216.44;5070733;28;20196;-70
2022/01/10 11:25:24;;;;;;;23.93;17.60;;;;;;;9.97;100.00;98214.22;5073924;28;20623;-69
2022/01/10 11:27:53;;;;;;;24.50;18.43;;;;;;;9.93;100.00;98213.03;5074373;28;20215;-70
2022/01/10 11:30:32;;;;;;;31.00;20.73;;;;;;;10.02;100.00;98217.00;5074389;28;20287;-69